createdAt,value
2023-02-06T00:01:31.772Z,103181.44
2023-02-06T00:04:01.049Z,103184.72
2023-02-06T00:06:28.961Z,103184.72
2023-02-06T00:08:56.987Z,103185.63
2023-02-06T00:11:25.468Z,103159.81
2023-02-06T00:13:53.468Z,103193.16
2023-02-06T00:16:23.495Z,103199.97
2023-02-06T00:18:51.841Z,103199.41
2023-02-06T00:21:22.111Z,103203.63
2023-02-06T00:23:50.651Z,103201.25
2023-02-06T00:26:19.093Z,103160.78
2023-02-06T00:28:47.786Z,103153.47
2023-02-06T00:31:16.690Z,103184.44
2023-02-06T00:33:44.700Z,103182.06
2023-02-06T00:36:12.909Z,103215.56
2023-02-06T00:38:42.332Z,103224.03
2023-02-06T00:41:10.315Z,103235.78
2023-02-06T00:43:38.491Z,103241.50
2023-02-06T00:46:06.892Z,103244.97
2023-02-06T00:48:34.879Z,103183.38
2023-02-06T00:51:02.716Z,103226.47
2023-02-06T00:53:31.027Z,103238.00
2023-02-06T00:56:00.364Z,103215.81
2023-02-06T00:58:28.238Z,103258.75
2023-02-06T01:00:56.267Z,103239.84
2023-02-06T01:03:24.176Z,103260.19
2023-02-06T01:05:52.010Z,103262.59
2023-02-06T01:08:20.010Z,103278.00
2023-02-06T01:10:47.976Z,103292.31
2023-02-06T01:13:17.224Z,103282.78
2023-02-06T01:15:45.452Z,103280.38
2023-02-06T01:18:13.566Z,103276.91
2023-02-06T01:20:42.230Z,103266.06
2023-02-06T01:23:10.697Z,103274.88
2023-02-06T01:25:38.800Z,103271.03
2023-02-06T01:28:06.683Z,103275.06
2023-02-06T01:30:36.069Z,103276.53
2023-02-06T01:33:03.971Z,103278.91
2023-02-06T01:35:31.827Z,103271.75
2023-02-06T01:37:59.823Z,103273.97
2023-02-06T01:40:27.997Z,103273.59
2023-02-06T01:42:55.857Z,103263.88
2023-02-06T01:45:39.381Z,103250.09
2023-02-06T01:48:11.386Z,103264.22
2023-02-06T01:50:42.963Z,103266.25
2023-02-06T01:53:11.267Z,103258.53
2023-02-06T01:55:42.729Z,103234.69
2023-02-06T01:58:15.568Z,103273.19
2023-02-06T02:00:45.217Z,103268.06
2023-02-06T02:03:13.478Z,103270.63
2023-02-06T02:05:44.594Z,103246.06
2023-02-06T02:08:18.614Z,103264.41
2023-02-06T02:10:47.106Z,103265.31
2023-02-06T02:13:15.220Z,103258.16
2023-02-06T02:15:57.456Z,103273.38
2023-02-06T02:18:43.713Z,103276.66
2023-02-06T02:22:05.433Z,103286.00
2023-02-06T02:24:49.935Z,103278.69
2023-02-06T02:27:51.844Z,103276.13
2023-02-06T02:30:52.600Z,103283.81
2023-02-06T02:33:48.203Z,103278.50
2023-02-06T02:36:23.569Z,103277.56
2023-02-06T02:39:00.252Z,103269.31
2023-02-06T02:41:33.793Z,103214.81
2023-02-06T02:44:08.880Z,103294.06
2023-02-06T02:46:39.958Z,103273.13
2023-02-06T02:49:12.759Z,103289.13
2023-02-06T02:51:43.099Z,103285.63
2023-02-06T02:54:11.753Z,103290.75
2023-02-06T02:56:40.093Z,103291.50
2023-02-06T02:59:12.615Z,103294.25
2023-02-06T03:01:45.374Z,103294.59
2023-02-06T03:04:17.909Z,103295.50
2023-02-06T03:07:05.526Z,103250.75
2023-02-06T03:09:47.037Z,103229.09
2023-02-06T03:12:23.256Z,103288.00
2023-02-06T03:14:55.193Z,103289.25
2023-02-06T03:17:32.705Z,103294.38
2023-02-06T03:20:03.075Z,103269.06
2023-02-06T03:22:34.244Z,103283.03
2023-02-06T03:25:05.847Z,103280.47
2023-02-06T03:27:35.026Z,103255.13
2023-02-06T03:30:05.716Z,103294.00
2023-02-06T03:32:36.042Z,103299.50
2023-02-06T03:35:08.198Z,103291.78
2023-02-06T03:37:39.263Z,103305.00
2023-02-06T03:40:09.649Z,103284.06
2023-02-06T03:42:42.240Z,103289.94
2023-02-06T03:45:17.013Z,103292.13
2023-02-06T03:47:47.187Z,103216.50
2023-02-06T03:50:16.145Z,103300.94
2023-02-06T03:52:49.811Z,103285.47
2023-02-06T03:55:21.249Z,103284.38
2023-02-06T03:57:54.006Z,103320.19
2023-02-06T04:00:22.898Z,103333.00
2023-02-06T04:02:52.544Z,103348.19
2023-02-06T04:05:20.972Z,103335.34
2023-02-06T04:07:50.515Z,103357.53
2023-02-06T04:10:18.627Z,103342.47
2023-02-06T04:12:46.549Z,103365.78
2023-02-06T04:15:14.390Z,103371.63
2023-02-06T04:17:57.521Z,103359.09
2023-02-06T04:20:27.772Z,103368.28
2023-02-06T04:22:57.542Z,103377.28
2023-02-06T04:25:25.607Z,103374.31
2023-02-06T04:27:53.636Z,103385.72
2023-02-06T04:30:21.778Z,103362.22
2023-02-06T04:32:49.592Z,103374.53
2023-02-06T04:35:17.680Z,103365.72
2023-02-06T04:37:45.644Z,103364.44
2023-02-06T04:40:15.099Z,103360.38
2023-02-06T04:42:43.218Z,103364.44
2023-02-06T04:45:11.239Z,103341.13
2023-02-06T04:47:39.145Z,103355.81
2023-02-06T04:50:08.317Z,103340.41
2023-02-06T04:52:36.376Z,103366.06
2023-02-06T04:55:04.246Z,103349.72
2023-02-06T04:57:33.583Z,103351.94
2023-02-06T05:00:01.645Z,103342.22
2023-02-06T05:02:29.513Z,103343.69
2023-02-06T05:04:57.490Z,103348.06
2023-02-06T05:07:25.631Z,103339.59
2023-02-06T05:09:53.489Z,103354.28
2023-02-06T05:12:21.489Z,103354.81
2023-02-06T05:14:50.794Z,103363.44
2023-02-06T05:17:18.618Z,103352.41
2023-02-06T05:19:46.982Z,103355.34
2023-02-06T05:22:14.956Z,103360.88
2023-02-06T05:24:42.779Z,103361.78
2023-02-06T05:27:10.793Z,103366.91
2023-02-06T05:29:38.791Z,103370.00
2023-02-06T05:32:08.083Z,103380.25
2023-02-06T05:34:36.091Z,103383.13
2023-02-06T05:37:04.070Z,103395.25
2023-02-06T05:39:31.929Z,103400.38
2023-02-06T05:41:59.974Z,103395.25
2023-02-06T05:44:27.971Z,103372.47
2023-02-06T05:46:55.860Z,103414.66
2023-02-06T05:49:25.212Z,103411.34
2023-02-06T05:51:53.265Z,103416.44
2023-02-06T05:54:21.086Z,103410.53
2023-02-06T05:56:49.107Z,103405.34
2023-02-06T05:59:17.091Z,103416.97
2023-02-06T06:01:44.890Z,103419.13
2023-02-06T06:04:13.286Z,103403.91
2023-02-06T06:06:42.880Z,103387.03
2023-02-06T06:09:10.714Z,103360.19
2023-02-06T06:11:38.739Z,103403.56
2023-02-06T06:14:06.653Z,103417.97
2023-02-06T06:16:34.603Z,103414.88
2023-02-06T06:19:03.110Z,103428.81
2023-02-06T06:21:31.239Z,103434.66
2023-02-06T06:24:00.683Z,103418.16
2023-02-06T06:26:28.854Z,103421.44
2023-02-06T06:28:57.496Z,103414.28
2023-02-06T06:31:25.439Z,103417.56
2023-02-06T06:33:54.403Z,103411.53
2023-02-06T06:36:22.313Z,103397.56
2023-02-06T06:38:50.272Z,103414.09
2023-02-06T06:41:19.800Z,103403.41
2023-02-06T06:43:47.910Z,103411.88
2023-02-06T06:46:16.672Z,103401.94
2023-02-06T06:48:44.660Z,103401.31
2023-02-06T06:51:12.484Z,103438.28
2023-02-06T06:53:40.825Z,103436.81
2023-02-06T06:56:11.432Z,103426.84
2023-02-06T06:58:40.867Z,103421.59
2023-02-06T07:01:09.678Z,103447.47
2023-02-06T07:03:37.849Z,103417.13
2023-02-06T07:06:06.338Z,103426.97
2023-02-06T07:08:34.457Z,103439.44
2023-02-06T07:11:02.447Z,103417.56
2023-02-06T07:13:30.294Z,103431.94
2023-02-06T07:15:59.494Z,103430.50
2023-02-06T07:18:27.488Z,103417.81
2023-02-06T07:20:55.337Z,103408.31
2023-02-06T07:23:23.225Z,103431.81
2023-02-06T07:25:51.273Z,103446.47
2023-02-06T07:28:19.263Z,103429.78
2023-02-06T07:30:48.156Z,103455.66
2023-02-06T07:33:17.608Z,103452.38
2023-02-06T07:35:45.458Z,103465.56
2023-02-06T07:38:13.288Z,103372.59
2023-02-06T07:40:45.547Z,103434.13
2023-02-06T07:43:14.386Z,103474.13
2023-02-06T07:45:42.452Z,103474.78
2023-02-06T07:48:10.394Z,103294.50
2023-02-06T07:50:39.792Z,103435.44
2023-02-06T07:53:07.996Z,103476.72
2023-02-06T07:55:37.892Z,103478.59
2023-02-06T07:58:06.032Z,103477.06
2023-02-06T08:00:34.109Z,103485.94
2023-02-06T08:03:01.900Z,103475.22
2023-02-06T08:05:29.853Z,103465.16
2023-02-06T08:07:59.322Z,103474.44
2023-02-06T08:10:27.583Z,103482.75
2023-02-06T08:12:55.500Z,103478.56
2023-02-06T08:15:23.591Z,103471.22
2023-02-06T08:17:51.412Z,103438.69
2023-02-06T08:20:19.384Z,103463.53
2023-02-06T08:22:47.735Z,103465.09
2023-02-06T08:25:17.224Z,103458.03
2023-02-06T08:27:45.085Z,103334.28
2023-02-06T08:30:14.523Z,103450.41
2023-02-06T08:32:42.392Z,103459.44
2023-02-06T08:35:10.279Z,103477.28
2023-02-06T08:37:38.350Z,103442.72
2023-02-06T08:40:07.017Z,103472.34
2023-02-06T08:42:36.323Z,103470.47
2023-02-06T08:45:04.422Z,103460.84
2023-02-06T08:47:32.294Z,103458.88
2023-02-06T08:50:02.888Z,103471.47
2023-02-06T08:52:31.501Z,103456.13
2023-02-06T08:54:59.337Z,103466.03
2023-02-06T08:57:27.152Z,103474.56
2023-02-06T08:59:56.985Z,103478.69
2023-02-06T09:02:24.868Z,103480.78
2023-02-06T09:04:52.716Z,103489.59
2023-02-06T09:07:21.880Z,103480.00
2023-02-06T09:09:49.732Z,103476.13
2023-02-06T09:12:17.650Z,103478.66
2023-02-06T09:14:45.957Z,103483.88
2023-02-06T09:17:15.196Z,103459.88
2023-02-06T09:19:43.195Z,103463.78
2023-02-06T09:22:11.223Z,103410.53
2023-02-06T09:24:39.179Z,103451.84
2023-02-06T09:27:07.090Z,103447.50
2023-02-06T09:29:35.320Z,103442.22
2023-02-06T09:32:03.235Z,103453.91
2023-02-06T09:34:32.476Z,103453.91
2023-02-06T09:37:03.724Z,103442.16
2023-02-06T09:39:32.252Z,103446.09
2023-02-06T09:42:05.788Z,103453.63
2023-02-06T09:44:37.293Z,103442.91
2023-02-06T09:47:18.545Z,103444.56
2023-02-06T09:49:51.182Z,103441.50
2023-02-06T09:52:43.903Z,103429.72
2023-02-06T09:55:19.333Z,103429.44
2023-02-06T09:57:58.501Z,103412.91
2023-02-06T10:00:38.774Z,103416.75
2023-02-06T10:03:37.624Z,103427.19
2023-02-06T10:06:19.141Z,103426.25
2023-02-06T10:08:54.700Z,103407.94
2023-02-06T10:11:33.678Z,103417.50
2023-02-06T10:14:05.611Z,103397.06
2023-02-06T10:16:39.676Z,103414.53
2023-02-06T10:19:15.064Z,103427.69
2023-02-06T10:21:49.506Z,103432.25
2023-02-06T10:24:25.224Z,103427.38
2023-02-06T10:26:54.613Z,103420.44
2023-02-06T10:29:30.208Z,103418.91
2023-02-06T10:32:14.224Z,103367.19
2023-02-06T10:35:15.861Z,103405.34
2023-02-06T10:38:14.982Z,103443.09
2023-02-06T10:40:53.415Z,103441.72
2023-02-06T10:43:32.122Z,103434.91
2023-02-06T10:46:09.956Z,103427.97
2023-02-06T10:48:44.582Z,103431.84
2023-02-06T10:51:20.936Z,103426.13
2023-02-06T10:53:52.904Z,103327.91
2023-02-06T10:56:25.379Z,103421.44
2023-02-06T10:58:57.114Z,103436.41
2023-02-06T11:01:27.480Z,103429.00
2023-02-06T11:03:59.941Z,103423.63
2023-02-06T11:06:31.181Z,103397.47
2023-02-06T11:09:00.602Z,103394.59
2023-02-06T11:11:30.803Z,103406.72
2023-02-06T11:14:02.754Z,103411.34
2023-02-06T11:16:32.089Z,103419.22
2023-02-06T11:19:09.924Z,103411.03
2023-02-06T11:21:54.053Z,103426.00
2023-02-06T11:24:25.179Z,103410.38
2023-02-06T11:26:56.822Z,103416.19
2023-02-06T11:29:28.075Z,103404.00
2023-02-06T11:31:58.660Z,103389.09
2023-02-06T11:34:32.465Z,103265.13
2023-02-06T11:37:03.161Z,103403.69
2023-02-06T11:39:34.533Z,103411.59
2023-02-06T11:42:06.427Z,103405.84
2023-02-06T11:44:39.748Z,103402.44
2023-02-06T11:47:21.914Z,103410.19
2023-02-06T11:49:49.975Z,103418.97
2023-02-06T11:52:30.168Z,103416.28
2023-02-06T11:55:02.314Z,103401.38
2023-02-06T11:57:33.704Z,103382.03
2023-02-06T12:00:06.160Z,103400.78
2023-02-06T12:02:36.040Z,103422.88
2023-02-06T12:05:11.858Z,103414.66
2023-02-06T12:07:43.990Z,103420.75
2023-02-06T12:10:17.521Z,103423.97
2023-02-06T12:12:50.626Z,103420.31
2023-02-06T12:15:46.686Z,103430.81
2023-02-06T12:18:14.662Z,103427.28
2023-02-06T12:20:51.334Z,103428.97
2023-02-06T12:23:23.960Z,103418.47
2023-02-06T12:25:57.709Z,103399.53
2023-02-06T12:28:32.548Z,103416.50
2023-02-06T12:31:05.039Z,103413.53
2023-02-06T12:33:40.405Z,103376.41
2023-02-06T12:36:16.798Z,103369.38
2023-02-06T12:38:51.490Z,103358.09
2023-02-06T12:41:41.977Z,103391.03
2023-02-06T12:44:22.975Z,103423.66
2023-02-06T12:46:56.150Z,103407.50
2023-02-06T12:49:28.554Z,103430.06
2023-02-06T12:52:04.871Z,103431.41
2023-02-06T12:54:37.711Z,103414.91
2023-02-06T12:57:13.737Z,103433.75
2023-02-06T13:00:10.162Z,103431.31
2023-02-06T13:03:05.369Z,103433.94
2023-02-06T13:05:37.820Z,103438.06
2023-02-06T13:08:08.925Z,103439.91
2023-02-06T13:10:38.637Z,103442.06
2023-02-06T13:13:08.195Z,103437.50
2023-02-06T13:15:39.794Z,103398.03
2023-02-06T13:18:50.760Z,103416.94
2023-02-06T13:21:21.506Z,103395.91
2023-02-06T13:24:12.643Z,103418.91
2023-02-06T13:27:12.010Z,103418.31
2023-02-06T13:29:42.846Z,103419.50
2023-02-06T13:32:46.492Z,103411.75
2023-02-06T13:35:23.136Z,103407.16
2023-02-06T13:37:53.039Z,103404.03
2023-02-06T13:40:30.619Z,103411.91
2023-02-06T13:43:02.742Z,103412.19
2023-02-06T13:45:35.325Z,103392.72
2023-02-06T13:48:31.326Z,103423.00
2023-02-06T13:51:18.638Z,103425.22
2023-02-06T13:54:17.209Z,103416.72
2023-02-06T13:57:01.089Z,103427.75
2023-02-06T13:59:31.381Z,103438.94
2023-02-06T14:02:05.347Z,103427.78
2023-02-06T14:04:34.608Z,103429.59
2023-02-06T14:07:23.942Z,103436.09
2023-02-06T14:10:05.454Z,103437.03
2023-02-06T14:12:49.828Z,103419.69
2023-02-06T14:15:28.565Z,103380.72
2023-02-06T14:18:09.000Z,103401.06
2023-02-06T14:20:48.628Z,103401.88
2023-02-06T14:23:38.500Z,103433.53
2023-02-06T14:26:20.074Z,103426.28
2023-02-06T14:28:59.046Z,103442.94
2023-02-06T14:31:40.659Z,103442.63
2023-02-06T14:34:24.456Z,103446.69
2023-02-06T14:37:25.876Z,103448.44
2023-02-06T14:39:55.783Z,103436.84
2023-02-06T14:42:27.227Z,103438.09
2023-02-06T14:44:58.998Z,103439.59
2023-02-06T14:47:32.524Z,103417.19
2023-02-06T14:50:02.800Z,103424.19
2023-02-06T14:52:33.457Z,103408.28
2023-02-06T14:55:01.459Z,103424.03
2023-02-06T14:57:31.291Z,103400.78
2023-02-06T15:00:01.572Z,103397.44
2023-02-06T15:02:32.607Z,103428.28
2023-02-06T15:05:02.582Z,103426.09
2023-02-06T15:07:32.557Z,103429.09
2023-02-06T15:10:05.810Z,103427.84
2023-02-06T15:12:34.469Z,103427.50
2023-02-06T15:15:05.457Z,103420.72
2023-02-06T15:17:34.627Z,103339.22
2023-02-06T15:20:26.120Z,103420.47
2023-02-06T15:22:58.132Z,103425.31
2023-02-06T15:25:41.366Z,103419.81
2023-02-06T15:28:18.939Z,103427.22
2023-02-06T15:30:47.551Z,103413.63
2023-02-06T15:33:25.149Z,103419.88
2023-02-06T15:35:56.326Z,103418.03
2023-02-06T15:38:26.385Z,103410.31
2023-02-06T15:40:57.141Z,103407.56
2023-02-06T15:43:27.543Z,103389.97
2023-02-06T15:45:57.973Z,103412.19
2023-02-06T15:48:29.210Z,103411.50
2023-02-06T15:51:01.221Z,103408.00
2023-02-06T15:53:35.859Z,103382.19
2023-02-06T15:56:09.939Z,103401.66
2023-02-06T15:58:38.143Z,103229.09
2023-02-06T16:01:14.346Z,103434.41
2023-02-06T16:03:43.386Z,103403.25
2023-02-06T16:06:16.815Z,103427.09
2023-02-06T16:08:51.442Z,103421.63
2023-02-06T16:11:37.117Z,103428.97
2023-02-06T16:14:07.327Z,103428.06
2023-02-06T16:16:35.356Z,103423.47
2023-02-06T16:19:03.304Z,103407.72
2023-02-06T16:21:35.477Z,103432.69
2023-02-06T16:24:16.460Z,103434.19
2023-02-06T16:26:48.138Z,103375.50
2023-02-06T16:29:26.919Z,103416.34
2023-02-06T16:32:01.440Z,103403.16
2023-02-06T16:34:37.205Z,103352.91
2023-02-06T16:37:13.024Z,103411.06
2023-02-06T16:39:42.471Z,103381.34
2023-02-06T16:42:15.047Z,103412.72
2023-02-06T16:44:45.621Z,103424.69
2023-02-06T16:47:16.064Z,103408.16
2023-02-06T16:49:44.408Z,103410.72
2023-02-06T16:52:19.243Z,103394.03
2023-02-06T16:54:48.021Z,103409.28
2023-02-06T16:57:22.808Z,103422.88
2023-02-06T16:59:51.624Z,103402.88
2023-02-06T17:02:19.561Z,103402.91
2023-02-06T17:04:47.559Z,103419.03
2023-02-06T17:07:19.475Z,103422.16
2023-02-06T17:09:49.006Z,103426.78
2023-02-06T17:12:19.606Z,103433.59
2023-02-06T17:14:48.800Z,103422.03
2023-02-06T17:17:18.826Z,103373.78
2023-02-06T17:19:48.055Z,103420.59
2023-02-06T17:22:17.628Z,103422.06
2023-02-06T17:24:46.411Z,103402.28
2023-02-06T17:27:16.640Z,103420.78
2023-02-06T17:29:47.446Z,103424.69
2023-02-06T17:32:18.250Z,103426.16
2023-02-06T17:34:46.055Z,103419.94
2023-02-06T17:37:20.953Z,103434.44
2023-02-06T17:39:51.982Z,103437.94
2023-02-06T17:42:22.034Z,103397.38
2023-02-06T17:44:50.569Z,103432.63
2023-02-06T17:47:18.460Z,103408.78
2023-02-06T17:49:47.215Z,103436.50
2023-02-06T17:52:15.461Z,103428.59
2023-02-06T17:54:43.411Z,103417.19
2023-02-06T17:57:13.417Z,103227.97
2023-02-06T17:59:41.353Z,103423.81
2023-02-06T18:02:12.712Z,103419.41
2023-02-06T18:04:40.658Z,103416.88
2023-02-06T18:07:08.941Z,103424.94
2023-02-06T18:09:36.853Z,103423.13
2023-02-06T18:12:05.024Z,103429.75
2023-02-06T18:14:35.675Z,103433.06
2023-02-06T18:17:04.110Z,103420.00
2023-02-06T18:19:32.419Z,103414.69
2023-02-06T18:22:00.519Z,103405.13
2023-02-06T18:24:28.440Z,103399.97
2023-02-06T18:26:56.427Z,103395.56
2023-02-06T18:29:24.415Z,103390.41
2023-02-06T18:31:53.666Z,103395.75
2023-02-06T18:34:21.867Z,103377.19
2023-02-06T18:36:50.022Z,103391.69
2023-02-06T18:39:18.100Z,103401.81
2023-02-06T18:42:03.408Z,103393.34
2023-02-06T18:44:31.699Z,103389.84
2023-02-06T18:47:00.891Z,103339.09
2023-02-06T18:49:28.847Z,103403.84
2023-02-06T18:51:56.757Z,103367.91
2023-02-06T18:54:24.696Z,103400.75
2023-02-06T18:56:52.732Z,103409.03
2023-02-06T18:59:20.996Z,103425.56
2023-02-06T19:01:49.235Z,103416.00
2023-02-06T19:04:18.540Z,103413.81
2023-02-06T19:06:47.064Z,103423.94
2023-02-06T19:09:15.596Z,103415.13
2023-02-06T19:11:44.210Z,103410.53
2023-02-06T19:14:15.423Z,103409.59
2023-02-06T19:16:44.737Z,103328.53
2023-02-06T19:19:13.307Z,103405.94
2023-02-06T19:21:44.314Z,103400.44
2023-02-06T19:24:13.928Z,103402.28
2023-02-06T19:26:42.816Z,103401.34
2023-02-06T19:29:12.619Z,103403.75
2023-02-06T19:31:40.681Z,103402.09
2023-02-06T19:34:10.809Z,103403.00
2023-02-06T19:36:38.694Z,103390.88
2023-02-06T19:39:12.874Z,103392.53
2023-02-06T19:41:43.673Z,103396.03
2023-02-06T19:44:14.973Z,103382.25
2023-02-06T19:46:42.791Z,103393.44
2023-02-06T19:49:12.318Z,103313.28
2023-02-06T19:51:42.372Z,103384.25
2023-02-06T19:54:11.567Z,103299.91
2023-02-06T19:56:41.816Z,103388.31
2023-02-06T19:59:18.263Z,103386.66
2023-02-06T20:01:46.927Z,103388.31
2023-02-06T20:04:15.453Z,103392.72
2023-02-06T20:06:44.608Z,103386.09
2023-02-06T20:09:15.769Z,103383.69
2023-02-06T20:11:43.746Z,103364.22
2023-02-06T20:14:13.389Z,103359.28
2023-02-06T20:16:42.838Z,103360.00
2023-02-06T20:19:13.609Z,103277.66
2023-02-06T20:21:44.532Z,103363.66
2023-02-06T20:24:18.438Z,103359.25
2023-02-06T20:26:46.718Z,103352.28
2023-02-06T20:29:21.643Z,103359.09
2023-02-06T20:31:50.488Z,103360.00
2023-02-06T20:34:19.164Z,103351.53
2023-02-06T20:36:47.707Z,103355.94
2023-02-06T20:39:17.609Z,103304.41
2023-02-06T20:41:46.453Z,103325.13
2023-02-06T20:44:15.124Z,103322.00
2023-02-06T20:46:43.989Z,103347.88
2023-02-06T20:49:15.739Z,103354.69
2023-02-06T20:51:43.853Z,103341.47
2023-02-06T20:54:13.561Z,103365.72
2023-02-06T20:56:43.172Z,103337.47
2023-02-06T20:59:14.016Z,103285.00
2023-02-06T21:01:42.228Z,103358.72
2023-02-06T21:04:12.439Z,103348.25
2023-02-06T21:06:41.464Z,103347.16
2023-02-06T21:09:10.839Z,103328.81
2023-02-06T21:11:40.930Z,103347.91
2023-02-06T21:14:14.698Z,103289.41
2023-02-06T21:16:43.741Z,103335.03
2023-02-06T21:19:13.651Z,103342.94
2023-02-06T21:21:44.896Z,103329.88
2023-02-06T21:24:14.032Z,103317.44
2023-02-06T21:26:42.097Z,103327.31
2023-02-06T21:29:12.318Z,103328.25
2023-02-06T21:31:40.359Z,103339.25
2023-02-06T21:34:11.230Z,103329.72
2023-02-06T21:36:40.164Z,103271.97
2023-02-06T21:39:08.950Z,103330.63
2023-02-06T21:41:37.752Z,103329.31
2023-02-06T21:44:06.229Z,103326.75
2023-02-06T21:46:35.673Z,103333.72
2023-02-06T21:49:03.726Z,103328.94
2023-02-06T21:51:31.716Z,103333.34
2023-02-06T21:53:59.884Z,103339.59
2023-02-06T21:56:29.150Z,103353.00
2023-02-06T21:58:58.097Z,103343.97
2023-02-06T22:01:27.948Z,103323.06
2023-02-06T22:04:00.964Z,103347.44
2023-02-06T22:06:29.271Z,103292.97
2023-02-06T22:09:05.234Z,103333.44
2023-02-06T22:11:33.571Z,103327.72
2023-02-06T22:14:03.347Z,103330.81
2023-02-06T22:16:31.364Z,103304.19
2023-02-06T22:19:01.780Z,103319.56
2023-02-06T22:21:31.461Z,103319.19
2023-02-06T22:24:02.254Z,103300.84
2023-02-06T22:26:31.198Z,103305.38
2023-02-06T22:28:59.682Z,103310.84
2023-02-06T22:31:30.057Z,103315.59
2023-02-06T22:34:00.426Z,103320.19
2023-02-06T22:36:30.348Z,103312.81
2023-02-06T22:39:00.663Z,103309.47
2023-02-06T22:41:29.315Z,103304.50
2023-02-06T22:43:57.353Z,103284.19
2023-02-06T22:46:27.339Z,103312.56
2023-02-06T22:48:55.861Z,103263.66
2023-02-06T22:51:25.556Z,103327.28
2023-02-06T22:53:54.232Z,103327.28
2023-02-06T22:56:31.533Z,103318.13
2023-02-06T22:59:01.775Z,103310.22
2023-02-06T23:01:33.313Z,103315.91
2023-02-06T23:04:03.651Z,103315.38
2023-02-06T23:06:34.212Z,103328.78
2023-02-06T23:09:03.589Z,103325.28
2023-02-06T23:11:32.345Z,103331.19
2023-02-06T23:14:01.930Z,103330.25
2023-02-06T23:16:31.910Z,103288.09
2023-02-06T23:19:01.889Z,103293.38
2023-02-06T23:21:29.778Z,103336.09
2023-02-06T23:24:00.765Z,103337.94
2023-02-06T23:26:29.692Z,103345.09
2023-02-06T23:28:58.780Z,103299.81
2023-02-06T23:31:27.979Z,103335.47
2023-02-06T23:33:56.533Z,103330.91
2023-02-06T23:36:26.787Z,103317.84
2023-02-06T23:38:55.577Z,103301.19
2023-02-06T23:41:26.805Z,103330.84
2023-02-06T23:43:57.260Z,103322.72
2023-02-06T23:46:26.037Z,103296.16
2023-02-06T23:48:54.428Z,103227.06
2023-02-06T23:51:22.714Z,103316.25
2023-02-06T23:53:51.292Z,103320.09
2023-02-06T23:56:21.267Z,103316.78
2023-02-06T23:58:51.312Z,103311.03
